Massena International Richards Field Massena US
ICAO: KMSS
IATA: MSS
Category: Medium
Scheduled Services: Yes

Elevation: 215 ft
TransAlt. 18000 ft.

Airport Communications:
BOSTON APP/DEP:135.25
ASOS:128.075
BURLINGTON RDO:122.2
CTAF/UNICOM:123

KMSS Zoom In..

If you have problems with the map follow the link
https://www.worldairports.se/pages/airport.php?
ICAO=KMSS

Runways:

(A) RW 05 length 5600 ft width 100 ft
ILS 108.70 / hdg 45

(B) RW 09 length 4000 ft width 100 ft
---- / hdg 90

(C) RW 23 length 5600 ft width 100 ft
---- / hdg 225

(D) RW 27 length 4000 ft width 100 ft
---- / hdg 270

Location; KMSS
Day. 14 / Time. 18.53 Zulu
* Altimeter: 29.27
* Temperature: 03° c. 37.4°f.
* Wind from: 070° Speed 09 kn.
Dewpoint: 03° c.
Visibility: 1/4 Statute Miles.
Conditions: Fog.

KMSS 141853Z AUTO 07009KT 1/4SM FG VV002 03/03 A2927 RMK AO2 SLP914 T00330028


Wind From 070°
Speed 09 kn.

 
 
jpsmedia worldairports.se 2019   terms of use